Ashburnham, MA (01430)

6:28 AM EST on February 07, 2016 (GMT -0500)
APRSWXNET | | Change Station
CLOSE
Current Station
Personal Weather Station
Location: Fitchburg, MA
Elevation: 898 ft
Nearby Weather Stations

Elev 898 ft 42.60 °N, 71.85 °W | Updated 19 minutes ago

Mostly Cloudy
Mostly Cloudy
21 °F
Feels Like 21 °F
N
0
Wind Variable Wind from NW
Gusts 0.0 mph

Today
High -- | Low -- °F
--% Chance of Precip.
Yesterday
High -- | Low -- °F
Precip. -- in
Pressure 30.16 in
Visibility 10.0 miles
Clouds Clear
Windchill 21 °F
Dew Point 18 °F
Humidity 88%
Rainfall in
Snow Depth Not available.
6:55 AM 5:08 PM
Waning Crescent, 2% visible
METAR KFIT 071052Z AUTO 35005KT 10SM CLR M03/M08 A3014 RMK AO2 SLP213 T10331078
Pressure 30.16 in
Visibility 10.0 miles
Clouds Clear
Windchill 21 °F
Dew Point 18 °F
Humidity 88%
Rainfall in
Snow Depth Not available.
6:55 AM 5:08 PM
Waning Crescent, 2% visible
METAR KFIT 071052Z AUTO 35005KT 10SM CLR M03/M08 A3014 RMK AO2 SLP213 T10331078

10-Day Weather Forecast

Almanac

Astronomy

Feb. 07, 2016 Rise Set
Actual Time
Civil Twilight
Nautical Twilight
Astronomical Twilight
Moon
Length of Visible Light
Length of Day
Tomorrow will be .
, % of the Moon is Illuminated

Today's Extremes

State Highs State Lows

Community

WunderPhotos

Upload Photos

1,891,170 photos uploaded!

WunderBlog® & News

Nearby

Air Quality

  Air Quality AQ Index Pollutant
Not available.

Snow Depth

Station Depth Elevation

Earthquake Activity

City Distance Mag. Time & Date
Minimum magnitude displayed is 2.5.

Coastal Water Temperatures

Place Temperature

Stations

Nearby Weather Stations

Station Location Temp. Windchill Dew Point Humidity Wind Precip. Elev Updated Type
                   

Watches & Warnings

There are currently no watches in effect.